createdAt,value
2023-10-11T00:00:30.529Z,9.98
2023-10-11T00:03:32.339Z,9.77
2023-10-11T00:06:34.781Z,9.77
2023-10-11T00:09:36.637Z,9.35
2023-10-11T00:12:38.215Z,9.93
2023-10-11T00:15:39.846Z,9.93
2023-10-11T00:18:42.252Z,10.48
2023-10-11T00:21:44.377Z,11.13
2023-10-11T00:24:46.099Z,10.18
2023-10-11T00:27:47.658Z,12.07
2023-10-11T00:30:49.300Z,12.48
2023-10-11T00:33:51.030Z,12.05
2023-10-11T00:36:52.766Z,12.57
2023-10-11T00:39:55.231Z,13.38
2023-10-11T00:42:58.035Z,12.38
2023-10-11T00:46:00.920Z,11.27
2023-10-11T00:49:08.233Z,10.45
2023-10-11T00:52:09.824Z,10.05
2023-10-11T00:55:18.463Z,10.20
2023-10-11T00:58:20.009Z,9.63
2023-10-11T01:01:23.699Z,9.98
2023-10-11T01:04:29.078Z,9.85
2023-10-11T01:07:30.887Z,10.00
2023-10-11T01:10:32.451Z,10.48
2023-10-11T01:13:34.021Z,10.15
2023-10-11T01:16:36.765Z,10.85
2023-10-11T01:19:38.462Z,10.63
2023-10-11T01:22:40.039Z,10.50
2023-10-11T01:25:41.638Z,9.30
2023-10-11T01:28:43.599Z,10.40
2023-10-11T01:31:45.147Z,9.75
2023-10-11T01:34:46.743Z,9.27
2023-10-11T01:37:49.557Z,10.48
2023-10-11T01:40:51.320Z,10.70
2023-10-11T01:43:52.940Z,9.10
2023-10-11T01:46:54.467Z,9.60
2023-10-11T01:49:56.045Z,9.43
2023-10-11T01:52:57.648Z,9.50
2023-10-11T01:55:59.246Z,8.43
2023-10-11T01:59:02.418Z,8.48
2023-10-11T02:02:04.860Z,8.63
2023-10-11T02:05:06.648Z,8.18
2023-10-11T02:08:12.735Z,8.55
2023-10-11T02:11:17.294Z,8.38
2023-10-11T02:14:20.029Z,8.50
2023-10-11T02:20:26.434Z,7.82
2023-10-11T02:23:28.183Z,8.20
2023-10-11T02:26:32.470Z,8.00
2023-10-11T02:29:36.510Z,7.85
2023-10-11T02:32:39.985Z,8.43
2023-10-11T02:36:04.738Z,8.20
2023-10-11T02:39:07.359Z,8.60
2023-10-11T02:42:08.998Z,8.55
2023-10-11T02:45:14.090Z,8.23
2023-10-11T02:48:20.375Z,7.95
2023-10-11T02:51:25.933Z,8.23
2023-10-11T02:54:39.987Z,8.85
2023-10-11T02:57:41.919Z,8.32
2023-10-11T03:00:45.258Z,9.88
2023-10-11T03:03:49.056Z,8.63
2023-10-11T03:06:50.866Z,9.05
2023-10-11T03:09:55.220Z,9.10
2023-10-11T03:12:57.275Z,8.23
2023-10-11T03:15:59.114Z,9.02
2023-10-11T03:19:00.743Z,8.68
2023-10-11T03:22:03.469Z,8.45
2023-10-11T03:25:13.830Z,10.15
2023-10-11T03:28:16.594Z,9.60
2023-10-11T03:31:18.207Z,8.38
2023-10-11T03:34:21.129Z,8.55
2023-10-11T03:37:22.679Z,7.90
2023-10-11T03:40:37.086Z,8.63
2023-10-11T03:43:42.120Z,8.57
2023-10-11T03:46:48.290Z,8.43
2023-10-11T03:49:53.046Z,8.65
2023-10-11T03:53:07.703Z,7.93
2023-10-11T03:56:09.334Z,7.75
2023-10-11T03:59:13.193Z,7.70
2023-10-11T04:02:15.005Z,9.27
2023-10-11T04:05:16.596Z,7.55
2023-10-11T04:08:26.039Z,7.80
2023-10-11T04:11:32.354Z,8.15
2023-10-11T04:14:46.586Z,7.70
2023-10-11T04:17:50.637Z,6.72
2023-10-11T04:21:00.534Z,6.65
2023-10-11T04:24:02.239Z,6.20
2023-10-11T04:27:22.020Z,7.07
2023-10-11T04:30:42.636Z,6.80
2023-10-11T04:33:51.213Z,6.88
2023-10-11T04:36:56.504Z,5.97
2023-10-11T04:40:15.390Z,6.10
2023-10-11T04:43:26.238Z,6.43
2023-10-11T04:46:32.118Z,5.10
2023-10-11T04:49:33.916Z,5.43
2023-10-11T04:52:38.144Z,4.97
2023-10-11T04:55:42.510Z,5.32
2023-10-11T04:58:50.656Z,5.30
2023-10-11T05:01:52.228Z,5.90
2023-10-11T05:04:54.864Z,6.13
2023-10-11T05:08:06.351Z,6.43
2023-10-11T05:11:19.789Z,6.15
2023-10-11T05:14:30.723Z,5.20
2023-10-11T05:17:33.814Z,6.13
2023-10-11T05:20:41.339Z,5.57
2023-10-11T05:24:03.187Z,5.30
2023-10-11T05:27:12.771Z,5.68
2023-10-11T05:30:28.171Z,6.20
2023-10-11T05:33:42.948Z,5.72
2023-10-11T05:37:10.713Z,6.82
2023-10-11T05:40:30.866Z,6.20
2023-10-11T05:43:51.002Z,5.45
2023-10-11T05:47:11.047Z,5.85
2023-10-11T05:50:31.161Z,6.05
2023-10-11T05:53:33.143Z,5.10
2023-10-11T05:56:40.030Z,5.40
2023-10-11T05:59:43.843Z,5.55
2023-10-11T06:02:45.520Z,5.95
2023-10-11T06:05:47.260Z,5.90
2023-10-11T06:08:49.012Z,6.88
2023-10-11T06:11:51.153Z,5.63
2023-10-11T06:14:53.008Z,6.05
2023-10-11T06:17:56.416Z,6.13
2023-10-11T06:21:06.906Z,6.63
2023-10-11T06:24:08.735Z,5.57
2023-10-11T06:27:29.700Z,6.25
2023-10-11T06:30:33.398Z,6.53
2023-10-11T06:33:35.701Z,6.63
2023-10-11T06:36:37.431Z,5.90
2023-10-11T06:39:41.738Z,5.50
2023-10-11T06:42:44.134Z,5.78
2023-10-11T06:45:45.928Z,5.60
2023-10-11T06:48:50.483Z,5.63
2023-10-11T06:51:52.527Z,5.20
2023-10-11T06:55:08.971Z,5.18
2023-10-11T06:58:11.074Z,4.57
2023-10-11T07:01:15.268Z,4.88
2023-10-11T07:04:19.643Z,5.40
2023-10-11T07:07:21.413Z,4.65
2023-10-11T07:10:29.909Z,5.10
2023-10-11T07:13:50.300Z,4.68
2023-10-11T07:16:51.931Z,5.10
2023-10-11T07:19:53.608Z,9.70
2023-10-11T07:22:55.424Z,5.00
2023-10-11T07:26:15.962Z,4.90
2023-10-11T07:29:22.192Z,4.53
2023-10-11T07:32:24.184Z,5.18
2023-10-11T07:35:29.294Z,4.88
2023-10-11T07:38:35.762Z,4.88
2023-10-11T07:41:43.243Z,5.07
2023-10-11T07:44:51.424Z,5.40
2023-10-11T07:47:53.761Z,4.40
2023-10-11T07:50:55.392Z,5.35
2023-10-11T07:53:57.165Z,4.82
2023-10-11T07:56:59.308Z,5.10
2023-10-11T08:00:01.627Z,5.95
2023-10-11T08:03:06.649Z,5.47
2023-10-11T08:06:13.516Z,5.97
2023-10-11T08:09:24.896Z,6.82
2023-10-11T08:12:27.008Z,6.90
2023-10-11T08:15:29.007Z,6.15
2023-10-11T08:18:30.794Z,7.47
2023-10-11T08:21:33.485Z,6.38
2023-10-11T08:24:47.125Z,5.88
2023-10-11T08:27:52.690Z,5.43
2023-10-11T08:30:57.864Z,5.53
2023-10-11T08:33:59.415Z,6.20
2023-10-11T08:37:01.284Z,5.75
2023-10-11T08:40:20.766Z,5.68
2023-10-11T08:43:22.827Z,5.43
2023-10-11T08:46:24.537Z,5.10
2023-10-11T08:49:26.538Z,4.68
2023-10-11T08:52:31.946Z,5.57
2023-10-11T08:55:36.694Z,4.80
2023-10-11T08:58:38.472Z,4.53
2023-10-11T09:01:40.200Z,4.70
2023-10-11T09:04:41.819Z,4.78
2023-10-11T09:07:46.530Z,5.40
2023-10-11T09:10:50.537Z,4.63
2023-10-11T09:13:52.303Z,5.28
2023-10-11T09:16:58.370Z,4.68
2023-10-11T09:20:01.648Z,4.78
2023-10-11T09:23:03.340Z,4.63
2023-10-11T09:26:06.451Z,4.50
2023-10-11T09:29:08.351Z,4.72
2023-10-11T09:32:10.919Z,4.60
2023-10-11T09:35:14.737Z,4.57
2023-10-11T09:38:20.572Z,4.93
2023-10-11T09:41:22.755Z,4.60
2023-10-11T09:44:24.782Z,4.80
2023-10-11T09:47:32.599Z,5.05
2023-10-11T09:50:34.701Z,4.43
2023-10-11T09:53:37.150Z,4.72
2023-10-11T09:56:38.859Z,4.32
2023-10-11T09:59:40.593Z,4.57
2023-10-11T10:02:45.766Z,4.65
2023-10-11T10:05:47.879Z,4.70
2023-10-11T10:08:51.517Z,3.72
2023-10-11T10:11:53.178Z,4.10
2023-10-11T10:14:54.946Z,3.58
2023-10-11T10:17:58.159Z,3.90
2023-10-11T10:21:03.716Z,3.63
2023-10-11T10:24:08.726Z,3.50
2023-10-11T10:27:13.709Z,3.42
2023-10-11T10:30:17.759Z,3.28
2023-10-11T10:33:20.661Z,3.20
2023-10-11T10:36:22.530Z,3.20
2023-10-11T10:39:24.368Z,3.22
2023-10-11T10:42:26.030Z,3.30
2023-10-11T10:45:27.713Z,3.72
2023-10-11T10:48:41.535Z,3.28
2023-10-11T10:51:48.425Z,3.50
2023-10-11T10:54:50.173Z,4.05
2023-10-11T10:57:57.081Z,3.85
2023-10-11T11:01:01.762Z,3.80
2023-10-11T11:04:09.764Z,4.13
2023-10-11T11:07:13.434Z,4.75
2023-10-11T11:10:15.266Z,4.20
2023-10-11T11:13:16.917Z,4.18
2023-10-11T11:16:19.091Z,4.80
2023-10-11T11:19:27.051Z,4.90
2023-10-11T11:22:28.692Z,4.72
2023-10-11T11:25:30.729Z,4.40
2023-10-11T11:28:40.314Z,4.97
2023-10-11T11:31:42.311Z,4.20
2023-10-11T11:34:46.089Z,4.93
2023-10-11T11:37:47.740Z,5.32
2023-10-11T11:40:49.519Z,4.80
2023-10-11T11:43:51.129Z,5.43
2023-10-11T11:46:52.887Z,5.65
2023-10-11T11:49:55.771Z,5.57
2023-10-11T11:52:58.900Z,5.30
2023-10-11T11:56:02.062Z,7.38
2023-10-11T11:59:03.691Z,5.82
2023-10-11T12:02:10.151Z,6.03
2023-10-11T12:05:12.246Z,6.13
2023-10-11T12:08:20.308Z,5.28
2023-10-11T12:11:22.147Z,6.05
2023-10-11T12:14:24.380Z,5.68
2023-10-11T12:17:27.032Z,6.47
2023-10-11T12:20:35.630Z,7.30
2023-10-11T12:23:37.418Z,6.50
2023-10-11T12:26:42.467Z,7.00
2023-10-11T12:30:00.465Z,6.20
2023-10-11T12:33:10.761Z,6.25
2023-10-11T12:36:12.671Z,5.57
2023-10-11T12:39:26.102Z,5.85
2023-10-11T12:42:27.870Z,6.80
2023-10-11T12:45:29.678Z,6.18
2023-10-11T12:48:31.332Z,6.53
2023-10-11T12:51:34.705Z,6.30
2023-10-11T12:54:36.426Z,6.30
2023-10-11T12:57:40.144Z,6.05
2023-10-11T13:00:49.671Z,5.30
2023-10-11T13:03:55.861Z,5.88
2023-10-11T13:07:00.572Z,6.38
2023-10-11T13:10:08.072Z,5.95
2023-10-11T13:13:10.298Z,6.20
2023-10-11T13:16:23.853Z,9.93
2023-10-11T13:19:28.303Z,6.72
2023-10-11T13:22:32.848Z,5.82
2023-10-11T13:25:34.992Z,6.40
2023-10-11T13:28:36.694Z,5.93
2023-10-11T13:31:41.765Z,5.95
2023-10-11T13:34:43.692Z,5.78
2023-10-11T13:37:49.893Z,6.15
2023-10-11T13:40:51.739Z,6.50
2023-10-11T13:43:53.326Z,5.78
2023-10-11T13:46:56.994Z,5.53
2023-10-11T13:50:00.548Z,5.35
2023-10-11T13:53:02.344Z,6.05
2023-10-11T13:56:11.813Z,5.22
2023-10-11T13:59:22.219Z,4.60
2023-10-11T14:02:29.708Z,5.28
2023-10-11T14:05:38.964Z,5.15
2023-10-11T14:08:46.456Z,5.45
2023-10-11T14:11:48.196Z,5.28
2023-10-11T14:14:49.925Z,5.18
2023-10-11T14:17:51.758Z,4.85
2023-10-11T14:20:59.232Z,5.68
2023-10-11T14:24:00.941Z,5.45
2023-10-11T14:27:03.311Z,4.38
2023-10-11T14:30:05.178Z,4.80
2023-10-11T14:33:10.066Z,5.10
2023-10-11T14:36:11.993Z,4.50
2023-10-11T14:39:20.454Z,5.00
2023-10-11T14:42:22.306Z,5.18
2023-10-11T14:45:25.236Z,5.25
2023-10-11T14:48:26.949Z,5.68
2023-10-11T14:51:28.614Z,5.10
2023-10-11T14:54:30.643Z,5.20
2023-10-11T14:57:32.285Z,5.32
2023-10-11T15:00:36.844Z,5.30
2023-10-11T15:03:38.527Z,6.03
2023-10-11T15:06:40.329Z,5.50
2023-10-11T15:09:42.153Z,5.38
2023-10-11T15:12:43.828Z,5.07
2023-10-11T15:15:45.418Z,5.40
2023-10-11T15:18:47.103Z,6.10
2023-10-11T15:21:48.685Z,5.05
2023-10-11T15:24:50.328Z,6.18
2023-10-11T15:27:51.915Z,5.75
2023-10-11T15:30:53.698Z,5.18
2023-10-11T15:33:55.401Z,4.90
2023-10-11T15:36:57.908Z,5.75
2023-10-11T15:39:59.508Z,5.53
2023-10-11T15:43:01.126Z,5.65
2023-10-11T15:46:02.734Z,5.20
2023-10-11T15:49:04.392Z,5.40
2023-10-11T15:52:06.161Z,5.60
2023-10-11T15:55:08.946Z,5.70
2023-10-11T15:58:10.785Z,5.28
2023-10-11T16:01:15.532Z,5.72
2023-10-11T16:04:17.854Z,5.53
2023-10-11T16:07:19.708Z,5.15
2023-10-11T16:10:21.676Z,5.25
2023-10-11T16:13:23.833Z,5.70
2023-10-11T16:16:25.477Z,6.13
2023-10-11T16:19:29.374Z,5.65
2023-10-11T16:22:31.655Z,5.80
2023-10-11T16:25:33.269Z,5.55
2023-10-11T16:28:37.474Z,6.40
2023-10-11T16:31:39.062Z,5.78
2023-10-11T16:34:43.526Z,6.30
2023-10-11T16:37:45.309Z,5.95
2023-10-11T16:40:47.272Z,5.35
2023-10-11T16:43:49.916Z,5.63
2023-10-11T16:46:55.136Z,5.50
2023-10-11T16:49:56.894Z,5.47
2023-10-11T16:52:58.594Z,6.18
2023-10-11T16:56:01.552Z,6.20
2023-10-11T16:59:03.155Z,5.78
2023-10-11T17:02:05.813Z,6.47
2023-10-11T17:05:08.365Z,7.40
2023-10-11T17:08:13.379Z,6.25
2023-10-11T17:11:15.499Z,6.65
2023-10-11T17:14:17.403Z,6.78
2023-10-11T17:17:22.684Z,7.30
2023-10-11T17:20:24.391Z,6.65
2023-10-11T17:23:26.864Z,6.82
2023-10-11T17:26:33.627Z,6.68
2023-10-11T17:29:37.236Z,7.60
2023-10-11T17:32:40.791Z,7.07
2023-10-11T17:35:42.515Z,7.68
2023-10-11T17:38:44.280Z,7.72
2023-10-11T17:41:45.854Z,7.20
2023-10-11T17:44:47.696Z,7.35
2023-10-11T17:47:49.314Z,7.65
2023-10-11T17:50:52.090Z,8.13
2023-10-11T17:57:00.985Z,8.20
2023-10-11T18:00:02.592Z,9.00
2023-10-11T18:03:04.800Z,7.90
2023-10-11T18:06:06.405Z,7.65
2023-10-11T18:09:08.582Z,8.13
2023-10-11T18:12:10.334Z,9.30
2023-10-11T18:15:12.448Z,7.90
2023-10-11T18:18:14.999Z,8.02
2023-10-11T18:21:16.663Z,9.05
2023-10-11T18:24:19.608Z,7.57
2023-10-11T18:27:21.857Z,8.07
2023-10-11T18:30:24.937Z,8.15
2023-10-11T18:33:26.716Z,8.88
2023-10-11T18:36:30.564Z,8.73
2023-10-11T18:39:32.217Z,8.27
2023-10-11T18:42:33.887Z,8.38
2023-10-11T18:45:36.491Z,8.80
2023-10-11T18:48:38.214Z,9.73
2023-10-11T18:51:41.683Z,9.10
2023-10-11T18:54:43.495Z,9.40
2023-10-11T18:57:45.180Z,8.52
2023-10-11T19:00:46.830Z,8.93
2023-10-11T19:03:50.861Z,8.95
2023-10-11T19:06:52.719Z,8.27
2023-10-11T19:09:54.837Z,8.43
2023-10-11T19:12:57.768Z,10.00
2023-10-11T19:16:06.681Z,8.93
2023-10-11T19:19:14.948Z,8.70
2023-10-11T19:22:16.532Z,8.82
2023-10-11T19:25:21.717Z,8.32
2023-10-11T19:28:23.368Z,9.25
2023-10-11T19:31:27.432Z,9.35
2023-10-11T19:34:29.031Z,8.55
2023-10-11T19:37:30.658Z,8.85
2023-10-11T19:40:33.365Z,9.23
2023-10-11T19:43:37.825Z,8.55
2023-10-11T19:46:39.466Z,8.63
2023-10-11T19:49:41.088Z,8.75
2023-10-11T19:52:42.978Z,8.77
2023-10-11T19:55:44.530Z,8.63
2023-10-11T19:58:49.124Z,8.50
2023-10-11T20:01:50.974Z,8.77
2023-10-11T20:04:52.680Z,8.57
2023-10-11T20:07:54.611Z,8.82
2023-10-11T20:10:59.488Z,8.40
2023-10-11T20:14:01.065Z,9.43
2023-10-11T20:17:07.021Z,8.85
2023-10-11T20:20:12.556Z,8.65
2023-10-11T20:23:17.176Z,8.85
2023-10-11T20:26:25.911Z,8.85
2023-10-11T20:29:32.138Z,8.23
2023-10-11T20:32:33.995Z,8.18
2023-10-11T20:35:35.612Z,8.73
2023-10-11T20:38:39.977Z,8.07
2023-10-11T20:41:41.753Z,8.60
2023-10-11T20:44:44.496Z,8.43
2023-10-11T20:47:46.254Z,8.65
2023-10-11T20:50:50.009Z,9.45
2023-10-11T20:53:51.862Z,9.05
2023-10-11T20:57:02.803Z,9.18
2023-10-11T21:00:06.206Z,9.38
2023-10-11T21:03:13.079Z,9.60
2023-10-11T21:06:14.760Z,9.63
2023-10-11T21:09:21.830Z,9.18
2023-10-11T21:12:24.774Z,9.15
2023-10-11T21:15:27.655Z,8.77
2023-10-11T21:18:29.510Z,9.23
2023-10-11T21:21:31.176Z,9.60
2023-10-11T21:24:32.789Z,9.85
2023-10-11T21:27:34.432Z,8.82
2023-10-11T21:30:36.171Z,9.63
2023-10-11T21:33:37.849Z,12.02
2023-10-11T21:36:41.242Z,13.10
2023-10-11T21:39:44.363Z,10.38
2023-10-11T21:42:49.139Z,10.40
2023-10-11T21:45:50.957Z,9.45
2023-10-11T21:48:52.698Z,10.10
2023-10-11T21:51:54.711Z,9.27
2023-10-11T21:54:56.410Z,9.82
2023-10-11T21:58:00.910Z,10.02
2023-10-11T22:01:23.304Z,10.32
2023-10-11T22:04:24.990Z,10.23
2023-10-11T22:07:26.679Z,9.45
2023-10-11T22:10:29.310Z,9.98
2023-10-11T22:13:33.262Z,9.80
2023-10-11T22:16:36.922Z,9.82
2023-10-11T22:19:38.552Z,9.27
2023-10-11T22:22:41.748Z,8.73
2023-10-11T22:25:43.361Z,8.00
2023-10-11T22:28:45.677Z,8.50
2023-10-11T22:31:47.518Z,8.02
2023-10-11T22:34:49.192Z,8.50
2023-10-11T22:37:50.820Z,8.73
2023-10-11T22:40:53.621Z,8.50
2023-10-11T22:43:55.612Z,8.45
2023-10-11T22:46:57.225Z,9.15
2023-10-11T22:49:58.815Z,8.38
2023-10-11T22:53:02.679Z,9.02
2023-10-11T22:56:05.013Z,9.43
2023-10-11T22:59:06.667Z,10.25
2023-10-11T23:02:08.822Z,9.73
2023-10-11T23:05:11.180Z,9.05
2023-10-11T23:08:13.906Z,9.88
2023-10-11T23:11:19.609Z,10.40
2023-10-11T23:14:22.676Z,10.13
2023-10-11T23:17:26.679Z,10.45
2023-10-11T23:20:38.588Z,9.57
2023-10-11T23:23:43.206Z,10.43
2023-10-11T23:26:44.803Z,9.43
2023-10-11T23:29:46.866Z,10.77
2023-10-11T23:32:49.205Z,10.88
2023-10-11T23:35:52.763Z,10.65
2023-10-11T23:39:01.960Z,11.40
2023-10-11T23:42:16.114Z,8.68
2023-10-11T23:45:17.939Z,10.00
2023-10-11T23:48:19.750Z,11.18
2023-10-11T23:51:23.018Z,11.00
2023-10-11T23:54:25.297Z,10.57
2023-10-11T23:57:31.509Z,10.60
